Time;durP1;ratioP1;P1;durP2;ratioP2;P2;SDS_P1;SDS_P2;PMS_P1;PMS_P2;Temp;Humidity;BMP_temperature;BMP_pressure;BME280_temperature;BME280_humidity;BME280_pressure;Samples;Min_cycle;Max_cycle;Signal;HPM_P1;HPM_P2
2020/12/20 00:01:15;;;;;;;25.75;13.32;;;4.10;77.70;;;;;;5005609;28;20062;-84
2020/12/20 00:03:41;;;;;;;23.48;12.80;;;4.10;77.80;;;;;;4984769;28;20057;-83
2020/12/20 00:06:07;;;;;;;24.52;12.85;;;4.20;77.80;;;;;;4997836;28;20038;-84
2020/12/20 00:08:33;;;;;;;28.83;14.50;;;4.20;77.70;;;;;;4995461;28;20145;-83
2020/12/20 00:10:59;;;;;;;25.70;13.60;;;4.20;77.70;;;;;;5014464;28;20033;-84
2020/12/20 00:13:25;;;;;;;28.33;15.02;;;4.20;77.70;;;;;;5013592;28;20034;-81
2020/12/20 00:15:51;;;;;;;28.35;13.35;;;4.10;77.70;;;;;;5012990;28;20033;-82
2020/12/20 00:18:17;;;;;;;25.65;13.25;;;4.10;77.80;;;;;;5012915;28;20029;-82
2020/12/20 00:20:43;;;;;;;26.23;13.10;;;4.10;77.70;;;;;;5013015;28;20465;-82
2020/12/20 00:23:08;;;;;;;26.67;13.85;;;4.10;77.60;;;;;;5018021;28;20069;-82
2020/12/20 00:25:34;;;;;;;26.10;13.93;;;4.20;77.70;;;;;;5019600;28;20512;-82
2020/12/20 00:28:00;;;;;;;27.45;13.73;;;4.20;77.80;;;;;;5019403;28;20042;-83
2020/12/20 00:30:26;;;;;;;26.85;13.75;;;4.10;77.80;;;;;;5019514;28;20191;-83
2020/12/20 00:32:52;;;;;;;26.65;14.65;;;4.10;77.80;;;;;;5019578;28;20033;-83
2020/12/20 00:35:18;;;;;;;27.63;13.65;;;4.10;77.80;;;;;;5002058;28;20087;-82
2020/12/20 00:37:44;;;;;;;25.85;13.52;;;4.10;77.80;;;;;;5019756;28;20128;-83
2020/12/20 00:40:11;;;;;;;24.20;13.73;;;4.10;77.70;;;;;;5019411;28;20231;-83
2020/12/20 00:42:38;;;;;;;23.85;13.43;;;4.20;77.60;;;;;;4985987;28;20191;-83
2020/12/20 00:45:05;;;;;;;25.38;12.98;;;4.20;77.60;;;;;;5019639;28;20065;-82
2020/12/20 00:47:31;;;;;;;29.70;14.02;;;4.10;77.60;;;;;;5019752;28;20034;-85
2020/12/20 00:49:57;;;;;;;26.52;14.25;;;4.10;77.60;;;;;;5004582;28;20120;-81
2020/12/20 00:52:23;;;;;;;28.15;14.75;;;4.10;77.60;;;;;;5008788;28;20528;-82
2020/12/20 00:54:53;;;;;;;30.83;14.05;;;4.10;77.50;;;;;;5001318;28;20029;-82
2020/12/20 00:57:19;;;;;;;26.35;13.38;;;4.10;77.70;;;;;;5001629;28;20045;-81
2020/12/20 00:59:45;;;;;;;26.05;13.63;;;4.10;78.30;;;;;;5019104;28;20042;-81
2020/12/20 01:02:11;;;;;;;28.88;14.75;;;4.10;77.70;;;;;;4969512;28;20420;-81
2020/12/20 01:04:37;;;;;;;26.00;14.15;;;4.10;77.70;;;;;;4985671;28;20444;-82
2020/12/20 01:07:03;;;;;;;27.70;13.85;;;4.10;77.70;;;;;;5019182;28;20066;-82
2020/12/20 01:09:34;;;;;;;29.05;14.32;;;4.10;77.60;;;;;;4986059;28;20089;-83
2020/12/20 01:12:01;;;;;;;27.15;14.25;;;4.20;77.70;;;;;;5001141;28;20065;-82
2020/12/20 01:14:47;;;;;;;27.88;14.90;;;4.20;78.30;;;;;;5017995;28;20045;-82
2020/12/20 01:17:13;;;;;;;27.58;14.52;;;4.10;77.80;;;;;;4985195;28;20539;-83
2020/12/20 01:19:44;;;;;;;30.17;14.57;;;4.10;78.00;;;;;;4985876;28;20080;-82
2020/12/20 01:22:10;;;;;;;26.30;14.57;;;4.10;77.80;;;;;;5001351;28;20042;-81
2020/12/20 01:24:37;;;;;;;27.45;14.18;;;4.20;77.70;;;;;;5001344;28;20041;-80
2020/12/20 01:27:11;;;;;;;27.38;13.88;;;4.20;78.20;;;;;;5001405;28;20565;-81
2020/12/20 01:29:38;;;;;;;30.77;14.45;;;4.10;77.50;;;;;;5001341;28;20061;-82
2020/12/20 01:32:04;;;;;;;30.45;15.38;;;4.10;77.50;;;;;;5001242;28;20033;-82
2020/12/20 01:34:32;;;;;;;26.63;14.80;;;4.10;77.60;;;;;;4982305;28;20064;-80
2020/12/20 01:36:58;;;;;;;32.40;15.57;;;4.10;77.70;;;;;;4998170;28;20092;-82
2020/12/20 01:39:25;;;;;;;28.30;14.63;;;4.10;78.30;;;;;;4997700;28;20030;-81
2020/12/20 01:41:53;;;;;;;28.70;15.00;;;4.10;77.70;;;;;;4998243;28;20033;-81
2020/12/20 01:44:26;;;;;;;28.17;14.38;;;4.10;77.70;;;;;;4998196;28;20109;-81
2020/12/20 01:46:56;;;;;;;30.63;13.85;;;4.10;77.80;;;;;;5015145;28;20108;-81
2020/12/20 01:49:22;;;;;;;31.63;14.35;;;4.10;77.70;;;;;;4997734;28;20029;-81
2020/12/20 01:51:49;;;;;;;31.48;15.63;;;4.20;77.70;;;;;;4997862;28;20029;-82
2020/12/20 01:54:16;;;;;;;26.80;14.40;;;4.20;77.50;;;;;;4981796;28;20030;-82
2020/12/20 01:57:05;;;;;;;28.38;14.27;;;4.10;77.60;;;;;;4997866;28;20042;-81
2020/12/20 02:00:00;;;;;;;29.42;15.68;;;4.10;77.70;;;;;;4997731;28;20046;-81
2020/12/20 02:02:40;;;;;;;26.60;14.38;;;4.10;77.60;;;;;;5017400;28;20163;-79
2020/12/20 02:05:07;;;;;;;29.48;14.98;;;4.10;77.60;;;;;;5002768;28;20615;-82
2020/12/20 02:07:33;;;;;;;30.80;15.02;;;4.20;77.60;;;;;;4997354;28;20144;-82
2020/12/20 02:10:00;;;;;;;30.40;15.55;;;4.20;77.70;;;;;;4998609;28;20136;-82
2020/12/20 02:12:26;;;;;;;29.88;15.02;;;4.10;77.60;;;;;;4997568;28;20084;-81
2020/12/20 02:15:04;;;;;;;27.90;13.23;;;4.10;77.60;;;;;;4982609;28;20036;-80
2020/12/20 02:17:30;;;;;;;31.40;14.07;;;4.20;77.60;;;;;;4997431;28;20032;-81
2020/12/20 02:19:57;;;;;;;32.00;15.27;;;4.20;77.60;;;;;;4981140;28;20038;-83
2020/12/20 02:22:43;;;;;;;28.15;14.52;;;4.10;77.60;;;;;;4997363;28;20136;-83
2020/12/20 02:25:09;;;;;;;27.80;15.00;;;4.10;77.60;;;;;;4997198;28;20037;-81
2020/12/20 02:27:57;;;;;;;27.65;14.27;;;4.10;77.60;;;;;;4997133;28;20125;-82
2020/12/20 02:30:28;;;;;;;32.70;14.90;;;4.10;77.60;;;;;;4997591;28;20535;-81
2020/12/20 02:32:54;;;;;;;30.35;14.65;;;4.10;77.60;;;;;;4996648;28;20042;-81
2020/12/20 02:35:21;;;;;;;28.30;14.18;;;4.10;77.70;;;;;;5014804;28;20040;-81
2020/12/20 02:37:49;;;;;;;28.42;15.20;;;4.10;77.60;;;;;;4996712;28;20149;-83
2020/12/20 02:40:15;;;;;;;30.55;14.90;;;4.10;77.60;;;;;;4996995;28;20133;-81
2020/12/20 02:42:49;;;;;;;28.55;14.73;;;4.10;77.60;;;;;;4997040;28;20088;-82
2020/12/20 02:45:15;;;;;;;26.45;13.90;;;4.10;77.50;;;;;;4996379;28;20505;-83
2020/12/20 02:47:41;;;;;;;28.02;14.00;;;4.10;77.50;;;;;;4996613;28;20137;-83
2020/12/20 02:50:08;;;;;;;30.08;15.57;;;4.20;77.60;;;;;;4980832;28;20033;-83
2020/12/20 02:52:38;;;;;;;30.40;14.95;;;4.20;77.60;;;;;;4996499;28;20524;-83
2020/12/20 02:55:05;;;;;;;29.38;13.75;;;4.20;77.50;;;;;;4996738;28;20036;-82
2020/12/20 02:57:38;;;;;;;29.05;13.75;;;4.20;77.60;;;;;;4996538;28;20061;-82
2020/12/20 03:00:14;;;;;;;32.17;15.52;;;4.10;77.50;;;;;;4996512;28;20045;-82
2020/12/20 03:02:40;;;;;;;30.13;16.05;;;4.20;77.60;;;;;;4996508;28;20448;-81
2020/12/20 03:05:06;;;;;;;27.65;13.85;;;4.10;77.60;;;;;;5013849;28;20076;-81
2020/12/20 03:07:33;;;;;;;30.00;14.45;;;4.20;77.70;;;;;;4996336;28;20136;-81
2020/12/20 03:10:00;;;;;;;27.17;14.45;;;4.10;77.60;;;;;;4996319;28;20066;-82
2020/12/20 03:12:26;;;;;;;31.52;14.73;;;4.10;77.80;;;;;;4980080;28;20065;-81
2020/12/20 03:14:52;;;;;;;28.35;14.10;;;4.10;77.80;;;;;;5016028;28;20030;-81
2020/12/20 03:17:18;;;;;;;31.50;15.75;;;4.10;77.70;;;;;;5001347;28;20132;-83
2020/12/20 03:19:44;;;;;;;30.13;15.05;;;4.10;78.30;;;;;;4979924;28;20172;-82
2020/12/20 03:22:13;;;;;;;29.48;15.93;;;4.20;77.90;;;;;;4995961;28;20588;-81
2020/12/20 03:24:51;;;;;;;28.35;14.73;;;4.10;77.80;;;;;;4996507;28;20088;-83
2020/12/20 03:27:35;;;;;;;30.45;14.85;;;4.10;77.90;;;;;;4996110;28;20042;-81
2020/12/20 03:30:23;;;;;;;31.58;15.57;;;4.10;78.00;;;;;;4996372;28;20401;-82
2020/12/20 03:33:08;;;;;;;29.00;14.75;;;4.10;78.20;;;;;;5013795;28;20045;-80
2020/12/20 03:36:09;;;;;;;28.27;14.13;;;4.10;78.20;;;;;;4915006;29;20051;-80
2020/12/20 03:38:35;;;;;;;27.02;14.20;;;4.10;78.20;;;;;;4975651;28;20100;-83
2020/12/20 03:41:01;;;;;;;30.77;15.57;;;4.10;78.20;;;;;;4995713;28;20065;-83
2020/12/20 03:43:28;;;;;;;27.45;13.93;;;4.10;78.30;;;;;;4980058;28;20034;-83
2020/12/20 03:45:59;;;;;;;30.90;14.77;;;4.10;78.30;;;;;;4996108;28;20048;-84
2020/12/20 03:48:34;;;;;;;28.30;14.30;;;4.10;78.20;;;;;;4995791;28;20033;-83
2020/12/20 03:51:00;;;;;;;30.42;14.32;;;4.10;78.30;;;;;;4979395;28;20493;-83
2020/12/20 03:53:26;;;;;;;28.40;14.43;;;4.10;78.30;;;;;;4995230;28;20036;-83
2020/12/20 03:56:04;;;;;;;31.80;14.65;;;4.10;78.30;;;;;;5013225;28;20501;-80
2020/12/20 03:58:33;;;;;;;29.48;15.05;;;4.10;78.50;;;;;;4995475;28;20042;-80
2020/12/20 04:00:59;;;;;;;31.83;14.70;;;4.10;78.50;;;;;;4995826;28;20075;-80
2020/12/20 04:03:31;;;;;;;31.58;15.10;;;4.10;78.40;;;;;;4995376;28;20529;-80
2020/12/20 04:05:58;;;;;;;32.28;14.50;;;4.10;78.50;;;;;;5013087;28;20144;-80
2020/12/20 04:08:25;;;;;;;32.20;15.70;;;4.10;78.50;;;;;;4995165;28;20508;-80
2020/12/20 04:11:05;;;;;;;32.20;14.45;;;4.10;78.50;;;;;;4995851;28;20501;-82
2020/12/20 04:13:32;;;;;;;32.40;15.25;;;4.10;78.60;;;;;;4995534;28;20109;-81
2020/12/20 04:16:06;;;;;;;27.58;14.02;;;4.10;78.50;;;;;;4979416;28;20041;-82
2020/12/20 04:18:33;;;;;;;32.17;15.00;;;4.10;78.50;;;;;;4994872;28;20448;-81
2020/12/20 04:20:59;;;;;;;29.02;14.88;;;4.10;78.60;;;;;;4979236;28;20034;-81
2020/12/20 04:23:25;;;;;;;30.10;15.35;;;4.10;78.60;;;;;;4995595;28;20057;-80
2020/12/20 04:25:58;;;;;;;32.50;16.17;;;4.10;78.70;;;;;;4995697;28;20100;-81
2020/12/20 04:28:28;;;;;;;33.30;15.02;;;4.10;78.70;;;;;;4985054;28;20040;-81
2020/12/20 04:31:05;;;;;;;32.70;15.73;;;4.10;78.70;;;;;;4995579;28;20445;-82
2020/12/20 04:33:32;;;;;;;31.30;15.63;;;4.10;78.70;;;;;;4995145;28;20635;-81
2020/12/20 04:36:08;;;;;;;;;;;4.10;78.80;;;;;;4995668;28;20075;-82
2020/12/20 04:38:34;;;;;;;32.95;15.05;;;4.10;78.90;;;;;;4995151;28;19951;-80
2020/12/20 04:41:02;;;;;;;34.78;15.80;;;4.10;78.90;;;;;;4995073;28;20046;-79
2020/12/20 04:43:28;;;;;;;36.10;17.15;;;4.10;78.90;;;;;;4994728;28;20029;-79
2020/12/20 04:45:58;;;;;;;32.38;15.85;;;4.10;78.90;;;;;;5012744;28;20096;-79
2020/12/20 04:48:39;;;;;;;33.95;17.00;;;4.10;78.90;;;;;;4995078;28;20040;-80
2020/12/20 04:51:08;;;;;;;32.08;16.15;;;4.10;78.90;;;;;;4995478;28;20033;-79
2020/12/20 04:53:34;;;;;;;32.03;16.48;;;4.10;79.00;;;;;;5012368;28;20497;-80
2020/12/20 04:56:11;;;;;;;34.20;18.23;;;4.10;79.00;;;;;;4995205;28;20045;-80
2020/12/20 04:58:56;;;;;;;36.22;16.13;;;4.10;79.10;;;;;;4995106;28;20034;-81
2020/12/20 05:01:23;;;;;;;39.25;17.85;;;4.10;79.30;;;;;;4997322;28;20041;-79
2020/12/20 05:03:51;;;;;;;37.75;17.33;;;4.10;79.30;;;;;;4998941;28;20508;-82
2020/12/20 05:06:18;;;;;;;37.42;17.80;;;4.10;79.50;;;;;;5014642;28;20036;-83
2020/12/20 05:08:47;;;;;;;37.90;18.23;;;4.10;79.40;;;;;;4996251;28;20076;-81
2020/12/20 05:11:33;;;;;;;35.58;16.98;;;4.10;79.50;;;;;;5001441;28;20025;-82
2020/12/20 05:14:01;;;;;;;36.10;16.85;;;4.10;79.50;;;;;;4985901;28;20038;-82
2020/12/20 05:16:37;;;;;;;38.40;18.02;;;4.10;79.50;;;;;;4985944;28;20038;-82
2020/12/20 05:19:15;;;;;;;36.67;17.73;;;4.10;79.50;;;;;;4999493;28;20413;-82
2020/12/20 05:21:45;;;;;;;35.80;18.75;;;4.10;79.70;;;;;;4998762;28;20512;-82
2020/12/20 05:24:28;;;;;;;40.90;19.10;;;4.10;79.70;;;;;;4998368;28;20037;-81
2020/12/20 05:27:02;;;;;;;41.72;20.23;;;4.10;79.60;;;;;;4998657;28;20129;-82
2020/12/20 05:29:28;;;;;;;42.22;18.95;;;4.10;79.70;;;;;;4998536;28;20050;-82
2020/12/20 05:31:57;;;;;;;39.15;18.55;;;4.10;79.60;;;;;;4998762;28;20444;-81
2020/12/20 05:34:38;;;;;;;35.47;18.15;;;4.20;79.60;;;;;;4998302;28;20033;-83
2020/12/20 05:37:08;;;;;;;42.83;19.52;;;4.20;79.60;;;;;;4998712;28;20121;-83
2020/12/20 05:39:58;;;;;;;43.75;19.00;;;4.20;79.60;;;;;;5008007;28;20037;-82
2020/12/20 05:42:56;;;;;;;41.30;17.85;;;4.20;79.50;;;;;;4998670;28;20037;-83
2020/12/20 05:45:28;;;;;;;42.65;17.60;;;4.20;79.50;;;;;;4997965;28;20493;-83
2020/12/20 05:48:17;;;;;;;41.38;18.27;;;4.20;79.60;;;;;;4982781;28;20040;-81
2020/12/20 05:51:12;;;;;;;43.90;19.65;;;4.10;79.80;;;;;;4997878;28;20034;-81
2020/12/20 05:53:40;;;;;;;41.58;18.88;;;4.20;79.90;;;;;;4995537;28;20046;-81
2020/12/20 05:56:06;;;;;;;43.30;19.17;;;4.20;79.90;;;;;;5015481;28;20453;-81
2020/12/20 05:58:34;;;;;;;44.13;19.92;;;4.20;79.90;;;;;;5015498;28;20034;-83
2020/12/20 06:01:01;;;;;;;41.17;19.77;;;4.20;79.90;;;;;;4998141;28;20520;-83
2020/12/20 06:03:27;;;;;;;42.42;18.83;;;4.10;79.90;;;;;;5015130;28;20034;-85
2020/12/20 06:05:53;;;;;;;43.17;19.48;;;4.20;80.00;;;;;;5015653;28;20164;-81
2020/12/20 06:08:22;;;;;;;40.97;19.77;;;4.20;80.00;;;;;;4981189;28;20076;-82
2020/12/20 06:11:01;;;;;;;46.80;20.58;;;4.20;80.00;;;;;;5014913;28;20038;-81
2020/12/20 06:13:28;;;;;;;35.40;18.65;;;4.20;80.10;;;;;;4981258;28;20033;-84
2020/12/20 06:15:57;;;;;;;40.22;19.45;;;4.20;80.10;;;;;;4998229;28;20088;-89
2020/12/20 06:18:31;;;;;;;49.03;21.35;;;4.20;80.20;;;;;;4998479;28;20030;-87
2020/12/20 06:21:09;;;;;;;40.00;19.27;;;4.20;80.30;;;;;;4998116;28;20034;-89
2020/12/20 06:23:35;;;;;;;43.97;20.30;;;4.20;80.30;;;;;;4996450;28;20056;-87
2020/12/20 06:26:05;;;;;;;50.20;20.77;;;4.20;80.30;;;;;;5012308;28;20041;-86
2020/12/20 06:28:33;;;;;;;45.30;18.90;;;4.20;80.40;;;;;;4997613;28;20088;-88
2020/12/20 06:31:00;;;;;;;40.83;19.67;;;4.20;80.50;;;;;;4996770;28;20034;-87
2020/12/20 06:33:35;;;;;;;39.28;20.52;;;4.20;80.50;;;;;;4997276;28;20061;-87
2020/12/20 06:36:03;;;;;;;45.38;22.00;;;4.20;80.60;;;;;;4994698;28;20034;-89
2020/12/20 06:38:29;;;;;;;46.00;21.25;;;4.20;80.60;;;;;;4980762;28;20026;-88
2020/12/20 06:40:55;;;;;;;43.80;19.88;;;4.20;80.70;;;;;;4990674;28;20502;-88
2020/12/20 06:43:35;;;;;;;46.08;20.10;;;4.20;80.60;;;;;;4995104;28;20044;-89
2020/12/20 06:46:05;;;;;;;41.28;19.77;;;4.30;80.60;;;;;;4996521;28;20559;-87
2020/12/20 06:48:39;;;;;;;46.33;19.83;;;4.20;80.50;;;;;;4981338;28;20036;-88
2020/12/20 06:51:26;;;;;;;45.13;19.55;;;4.20;80.50;;;;;;5016242;28;20145;-89
2020/12/20 06:53:53;;;;;;;47.13;19.90;;;4.30;80.60;;;;;;5027900;28;20485;-87
2020/12/20 06:56:24;;;;;;;43.50;20.40;;;4.20;80.70;;;;;;4998880;28;20029;-89
2020/12/20 06:58:53;;;;;;;44.50;20.50;;;4.20;80.90;;;;;;5010864;28;20037;-90
2020/12/20 07:01:45;;;;;;;45.60;20.98;;;4.30;81.00;;;;;;4991592;28;20057;-90
2020/12/20 07:04:44;;;;;;;44.15;21.52;;;4.30;80.80;;;;;;4989346;28;20535;-89
2020/12/20 07:07:15;;;;;;;41.17;20.48;;;4.30;80.80;;;;;;4999677;28;20131;-88
2020/12/20 07:09:44;;;;;;;43.30;19.20;;;4.30;80.80;;;;;;5016539;28;20041;-89
2020/12/20 07:12:43;;;;;;;44.55;19.85;;;4.30;80.90;;;;;;5002125;28;20448;-89
2020/12/20 07:15:52;;;;;;;43.92;20.00;;;4.30;81.00;;;;;;5015576;28;20374;-87
2020/12/20 07:18:40;;;;;;;;;;;4.30;80.80;;;;;;4983883;28;20391;-90
2020/12/20 07:21:24;;;;;;;41.83;18.92;;;4.40;80.70;;;;;;4986665;28;19917;-88
2020/12/20 07:24:07;;;;;;;39.92;18.95;;;4.40;80.50;;;;;;5019279;28;20053;-87
2020/12/20 07:26:38;;;;;;;41.53;19.73;;;4.40;80.60;;;;;;5017070;28;20037;-87
2020/12/20 07:29:07;;;;;;;41.33;19.67;;;4.40;80.50;;;;;;5018264;28;20034;-89
2020/12/20 07:32:04;;;;;;;44.85;19.95;;;4.50;80.70;;;;;;5043844;23;20057;-87
2020/12/20 07:34:33;;;;;;;43.28;22.40;;;4.40;80.60;;;;;;5002405;28;20503;-86
2020/12/20 07:36:59;;;;;;;44.88;22.02;;;4.30;80.70;;;;;;5034680;28;20037;-86
2020/12/20 07:39:25;;;;;;;49.33;23.05;;;4.20;81.00;;;;;;5036209;28;20056;-85
2020/12/20 07:42:03;;;;;;;43.33;21.77;;;4.20;81.20;;;;;;5036163;28;20037;-89
2020/12/20 07:44:33;;;;;;;53.05;22.85;;;4.20;81.00;;;;;;5033033;28;20040;-84
2020/12/20 07:47:09;;;;;;;45.50;22.33;;;4.20;81.00;;;;;;5035076;28;20057;-89
2020/12/20 07:49:35;;;;;;;47.20;22.55;;;4.10;81.30;;;;;;5017025;28;20043;-85
2020/12/20 07:52:08;;;;;;;48.47;22.85;;;4.10;81.20;;;;;;5016346;28;20116;-81
2020/12/20 07:54:35;;;;;;;47.38;21.95;;;4.00;81.60;;;;;;5032628;28;20033;-80
2020/12/20 07:57:03;;;;;;;43.65;21.58;;;4.00;81.90;;;;;;5032621;28;20413;-80
2020/12/20 07:59:32;;;;;;;48.13;21.65;;;4.00;81.70;;;;;;5014780;28;20039;-80
2020/12/20 08:01:58;;;;;;;46.63;22.00;;;4.00;81.80;;;;;;5032824;28;20045;-79
2020/12/20 08:04:24;;;;;;;48.15;21.85;;;3.90;82.00;;;;;;5038450;28;20079;-80
2020/12/20 08:06:52;;;;;;;49.60;23.50;;;4.00;82.00;;;;;;5016955;28;20033;-80
2020/12/20 08:09:20;;;;;;;46.10;22.33;;;4.00;82.00;;;;;;5032682;28;20041;-81
2020/12/20 08:11:47;;;;;;;49.58;22.17;;;4.00;82.00;;;;;;5014776;28;20132;-79
2020/12/20 08:14:20;;;;;;;44.10;22.00;;;4.00;81.80;;;;;;4979497;28;20125;-83
2020/12/20 08:16:52;;;;;;;48.67;23.20;;;4.10;81.80;;;;;;5003692;28;20405;-83
2020/12/20 08:19:28;;;;;;;47.88;23.17;;;4.00;82.00;;;;;;5017718;28;20033;-86
2020/12/20 08:22:06;;;;;;;46.45;23.33;;;4.00;82.40;;;;;;5034420;28;20566;-85
2020/12/20 08:24:33;;;;;;;46.20;22.02;;;4.00;82.40;;;;;;5033176;28;20034;-89
2020/12/20 08:27:30;;;;;;;44.63;21.50;;;4.00;82.40;;;;;;5041924;28;20049;-87
2020/12/20 08:30:00;;;;;;;47.03;22.35;;;4.10;82.40;;;;;;5050559;28;20037;-90
2020/12/20 08:32:38;;;;;;;52.47;23.65;;;4.00;82.50;;;;;;5050513;28;20089;-91
2020/12/20 08:35:15;;;;;;;47.10;22.90;;;4.00;82.50;;;;;;5014456;28;20068;-88
2020/12/20 08:37:44;;;;;;;47.60;23.42;;;4.00;82.60;;;;;;5041726;28;20160;-89
2020/12/20 08:40:13;;;;;;;50.30;23.60;;;4.10;82.50;;;;;;5003209;28;20041;-85
2020/12/20 08:42:40;;;;;;;43.85;23.08;;;4.10;82.50;;;;;;5015717;28;20042;-85
2020/12/20 08:45:14;;;;;;;48.40;22.92;;;4.10;82.40;;;;;;5001760;28;20444;-85
2020/12/20 08:47:42;;;;;;;45.33;23.17;;;4.10;82.40;;;;;;5037340;28;20232;-87
2020/12/20 08:50:09;;;;;;;42.85;21.65;;;4.10;82.60;;;;;;5035908;28;20030;-89
2020/12/20 08:52:35;;;;;;;45.83;23.73;;;4.00;82.80;;;;;;5038188;28;20496;-88
2020/12/20 08:55:04;;;;;;;46.42;23.08;;;4.00;82.70;;;;;;5036739;28;20040;-84
2020/12/20 08:57:32;;;;;;;41.47;22.02;;;4.00;82.70;;;;;;5003276;28;20048;-85
2020/12/20 09:00:13;;;;;;;44.42;23.45;;;4.00;82.80;;;;;;5019424;28;20037;-89
2020/12/20 09:02:39;;;;;;;47.58;22.25;;;4.00;83.00;;;;;;5036387;28;20045;-83
2020/12/20 09:05:10;;;;;;;40.30;19.48;;;4.10;82.80;;;;;;5018135;28;20401;-85
2020/12/20 09:07:44;;;;;;;43.92;21.95;;;4.30;82.40;;;;;;5035941;28;20037;-86
2020/12/20 09:10:15;;;;;;;43.67;21.15;;;4.30;82.10;;;;;;5015796;28;20493;-86
2020/12/20 09:12:51;;;;;;;43.17;20.20;;;4.40;81.90;;;;;;5036612;28;20033;-85
2020/12/20 09:15:18;;;;;;;;;;;4.50;81.80;;;;;;5017935;28;20455;-87
2020/12/20 09:17:46;;;;;;;38.35;20.77;;;4.50;81.80;;;;;;5042446;28;19912;-86
2020/12/20 09:20:14;;;;;;;39.47;19.83;;;4.60;81.70;;;;;;5035614;28;20489;-83
2020/12/20 09:22:45;;;;;;;43.33;21.15;;;4.60;81.60;;;;;;5018695;28;20562;-89
2020/12/20 09:25:13;;;;;;;39.45;19.80;;;4.70;81.40;;;;;;5013108;28;20033;-88
2020/12/20 09:27:50;;;;;;;41.50;20.42;;;4.80;81.20;;;;;;5036251;28;20038;-86
2020/12/20 09:30:15;;;;;;;38.65;19.60;;;4.90;81.10;;;;;;5038658;28;20037;-91
2020/12/20 09:32:41;;;;;;;43.00;20.83;;;4.90;81.10;;;;;;5048893;28;20096;-87
2020/12/20 09:35:09;;;;;;;40.67;20.42;;;4.90;81.00;;;;;;5046334;28;20141;-91
2020/12/20 09:37:41;;;;;;;39.72;19.55;;;5.00;81.00;;;;;;5051839;28;20034;-92
2020/12/20 09:40:09;;;;;;;43.38;20.52;;;5.00;81.00;;;;;;5016070;28;20401;-92
2020/12/20 09:42:40;;;;;;;38.33;18.55;;;5.10;80.80;;;;;;5047562;28;20040;-88
2020/12/20 09:45:09;;;;;;;42.10;20.20;;;5.10;81.30;;;;;;5028680;28;20037;-86
2020/12/20 09:47:44;;;;;;;38.47;18.58;;;5.10;80.70;;;;;;5030979;28;20037;-87
2020/12/20 09:50:11;;;;;;;35.57;18.80;;;5.10;80.70;;;;;;5042993;28;20053;-88
2020/12/20 09:52:38;;;;;;;39.97;20.58;;;5.10;80.70;;;;;;5009768;28;20132;-87
2020/12/20 09:55:07;;;;;;;41.10;20.45;;;5.10;80.60;;;;;;5017970;28;20132;-87
2020/12/20 09:57:33;;;;;;;39.45;19.35;;;5.10;80.60;;;;;;5022357;28;20052;-89
2020/12/20 09:59:59;;;;;;;37.30;18.65;;;5.20;80.70;;;;;;5044625;28;20048;-89
2020/12/20 10:02:36;;;;;;;39.60;19.77;;;5.20;80.70;;;;;;5097534;23;20033;-87
2020/12/20 10:05:08;;;;;;;45.30;22.90;;;5.10;80.80;;;;;;5318240;23;20017;-94
2020/12/20 10:07:39;;;;;;;44.80;22.48;;;5.00;81.10;;;;;;5141462;23;20058;-88
2020/12/20 10:10:34;;;;;;;49.13;24.15;;;5.00;81.10;;;;;;5335138;23;20107;31
2020/12/20 10:13:03;;;;;;;44.60;22.80;;;5.00;81.30;;;;;;4972835;29;20055;-86
2020/12/20 10:15:32;;;;;;;42.80;21.58;;;4.90;81.50;;;;;;4969918;28;20043;-90
2020/12/20 10:18:01;;;;;;;44.47;22.42;;;4.70;82.10;;;;;;4956335;29;20039;-88
2020/12/20 10:20:34;;;;;;;48.22;22.77;;;4.70;82.40;;;;;;4949107;29;20094;-84
2020/12/20 10:23:00;;;;;;;46.55;21.35;;;4.60;82.60;;;;;;4965352;29;20069;-88
2020/12/20 10:25:26;;;;;;;47.40;22.85;;;4.60;82.60;;;;;;4963825;29;20043;-88
2020/12/20 10:27:56;;;;;;;45.08;21.83;;;4.60;83.00;;;;;;4943120;29;20197;-88
2020/12/20 10:30:22;;;;;;;44.47;21.67;;;4.60;83.00;;;;;;4958647;29;20054;-91
2020/12/20 10:32:49;;;;;;;45.45;21.35;;;4.70;84.70;;;;;;4968371;29;20051;-91
2020/12/20 10:35:16;;;;;;;40.92;20.90;;;4.70;86.30;;;;;;4947299;29;20122;-90
2020/12/20 10:37:42;;;;;;;47.65;21.42;;;4.60;85.90;;;;;;4960260;29;20095;-87
2020/12/20 10:40:08;;;;;;;49.72;24.77;;;4.60;85.50;;;;;;4956140;29;20121;-88
2020/12/20 10:42:34;;;;;;;49.88;24.05;;;4.50;85.30;;;;;;4955725;29;20515;-88
2020/12/20 10:45:00;;;;;;;42.33;21.73;;;4.50;85.00;;;;;;4957634;29;20039;-88
2020/12/20 10:47:26;;;;;;;47.33;23.20;;;4.50;85.00;;;;;;4958246;29;20451;-89
2020/12/20 10:49:52;;;;;;;46.58;21.08;;;4.50;84.90;;;;;;4958020;29;20039;-89
2020/12/20 10:52:18;;;;;;;43.35;21.80;;;4.50;84.80;;;;;;4958913;29;20081;-89
2020/12/20 10:54:44;;;;;;;47.95;23.08;;;4.40;84.90;;;;;;4958508;29;20047;-90
2020/12/20 10:57:10;;;;;;;42.60;19.88;;;4.40;85.10;;;;;;4959466;29;20031;-90
2020/12/20 10:59:36;;;;;;;48.05;23.27;;;4.50;85.20;;;;;;4960998;29;20035;-91
2020/12/20 11:02:04;;;;;;;50.70;22.83;;;4.40;85.30;;;;;;4961984;29;20130;-89
2020/12/20 11:04:30;;;;;;;49.30;22.38;;;4.40;85.40;;;;;;4966280;29;20046;-89
2020/12/20 11:07:00;;;;;;;46.53;21.88;;;4.40;85.10;;;;;;4962923;28;20019;-89
2020/12/20 11:09:27;;;;;;;47.42;22.60;;;4.40;85.20;;;;;;4959157;29;20035;-90
2020/12/20 11:11:53;;;;;;;47.83;22.45;;;4.40;85.20;;;;;;4959751;29;20093;-91
2020/12/20 11:14:20;;;;;;;47.28;20.95;;;4.40;85.20;;;;;;4957132;29;20047;-91
2020/12/20 11:16:48;;;;;;;43.78;22.20;;;4.40;85.30;;;;;;4958296;29;20042;-90
2020/12/20 11:19:14;;;;;;;46.88;23.27;;;4.40;85.40;;;;;;4958027;29;20499;-88
2020/12/20 11:21:40;;;;;;;51.65;23.73;;;4.40;85.30;;;;;;4958577;29;20066;-89
2020/12/20 11:24:06;;;;;;;55.13;24.05;;;4.50;85.10;;;;;;4956927;29;20058;-88
2020/12/20 11:26:35;;;;;;;51.33;23.55;;;4.40;85.20;;;;;;4941212;29;20031;-91
2020/12/20 11:29:01;;;;;;;48.08;23.88;;;4.40;85.30;;;;;;4925370;29;20031;-88
2020/12/20 11:31:28;;;;;;;51.42;23.27;;;4.40;85.50;;;;;;4963937;29;20043;-89
2020/12/20 11:33:54;;;;;;;49.78;23.40;;;4.40;85.60;;;;;;4964113;29;20164;-89
2020/12/20 11:36:23;;;;;;;46.42;23.65;;;4.40;85.80;;;;;;4959875;29;20534;-87
2020/12/20 11:38:50;;;;;;;52.08;24.75;;;4.40;85.80;;;;;;4960420;29;20411;-88
2020/12/20 11:41:28;;;;;;;51.42;24.20;;;4.30;86.10;;;;;;4966544;29;20039;-89
2020/12/20 11:43:55;;;;;;;47.78;22.25;;;4.40;86.10;;;;;;4972758;29;20094;-87
2020/12/20 11:46:22;;;;;;;47.85;23.42;;;4.30;86.30;;;;;;4973628;29;20031;-88
2020/12/20 11:48:48;;;;;;;53.63;24.02;;;4.30;86.20;;;;;;4974077;29;20031;-89
2020/12/20 11:51:16;;;;;;;51.33;23.42;;;4.40;86.30;;;;;;4972620;29;20042;-89
2020/12/20 11:53:42;;;;;;;52.22;22.83;;;4.40;86.10;;;;;;4967113;29;20046;-89
2020/12/20 11:56:09;;;;;;;45.75;22.20;;;4.40;86.10;;;;;;4959897;29;20459;-88
2020/12/20 11:58:35;;;;;;;47.80;22.50;;;4.50;86.00;;;;;;4959219;29;20094;-90
2020/12/20 12:01:01;;;;;;;55.15;24.17;;;4.50;86.20;;;;;;4942178;29;20142;-90
2020/12/20 12:03:27;;;;;;;50.58;21.92;;;4.40;86.50;;;;;;4957911;29;20063;-88
2020/12/20 12:05:53;;;;;;;45.83;22.42;;;4.40;86.50;;;;;;4957949;29;20080;-89
2020/12/20 12:08:19;;;;;;;49.55;24.15;;;4.40;86.60;;;;;;4957012;29;20407;-87
2020/12/20 12:10:49;;;;;;;45.40;22.75;;;4.40;86.60;;;;;;4940171;28;20143;-89
2020/12/20 12:13:16;;;;;;;47.80;21.00;;;4.40;86.70;;;;;;4957519;29;20051;-89
2020/12/20 12:15:42;;;;;;;50.10;24.10;;;4.40;86.60;;;;;;4957460;29;20070;-90
2020/12/20 12:18:09;;;;;;;44.00;20.85;;;4.40;86.70;;;;;;4939688;29;20090;-89
2020/12/20 12:20:36;;;;;;;48.33;22.95;;;4.40;86.90;;;;;;4957152;29;20047;-90
2020/12/20 12:23:03;;;;;;;43.45;20.95;;;4.40;87.30;;;;;;4942019;29;20035;-88
2020/12/20 12:25:29;;;;;;;41.35;20.23;;;4.30;87.40;;;;;;4929151;29;20087;-87
2020/12/20 12:27:55;;;;;;;37.05;18.50;;;4.30;87.60;;;;;;4963733;29;20050;-90
2020/12/20 12:30:22;;;;;;;38.20;20.08;;;4.30;87.60;;;;;;4962938;29;20046;-90
2020/12/20 12:32:52;;;;;;;39.22;18.83;;;4.30;87.40;;;;;;4959967;29;20035;-89
2020/12/20 12:35:19;;;;;;;40.28;19.80;;;4.30;87.70;;;;;;4965673;29;20039;-89
2020/12/20 12:37:45;;;;;;;42.38;20.52;;;4.30;87.50;;;;;;4965397;29;20047;-90
2020/12/20 12:40:11;;;;;;;38.28;19.10;;;4.30;87.70;;;;;;4965396;29;20046;-88
2020/12/20 12:42:41;;;;;;;43.15;21.23;;;4.30;87.80;;;;;;4963377;29;20061;-89
2020/12/20 12:45:07;;;;;;;42.67;20.17;;;4.30;88.00;;;;;;4960223;29;20522;-89
2020/12/20 12:47:33;;;;;;;42.55;19.60;;;4.30;88.00;;;;;;4958048;29;20035;-88
2020/12/20 12:49:58;;;;;;;39.15;19.05;;;4.30;88.10;;;;;;4956736;29;20130;-89
2020/12/20 12:52:25;;;;;;;39.67;19.77;;;4.30;88.00;;;;;;4957291;29;20467;-91
2020/12/20 12:54:51;;;;;;;40.58;19.50;;;4.30;88.30;;;;;;4967043;29;20035;-90